West Durham, New York
Current Conditions -  °F | °C
As of 7:51 PM on Wednesday 17 Dec 2014 (Local Time) from KALB Reporting Station
Overcast Overcast  
Wind Chill: 30°   Ceiling: 3500
Heat Index: 38°   Visibility: 10mi
Dew Point: 29°   Wind: 13mph
Humidity: 70%   Direction: 300°WNW
Pressure: 29.86"   Gusts: 23mph
Location:  42.4034°N, 74.1978°W
Report Text: KALB 180051Z 30011G20KT 10SM SCT025 BKN035 OVC045 03/M02 A2986 RMK AO2 RAE03 SLP113 P0000 T00331017
Loading
Personal Weather Stations






























Interactive Weather Map New forecast layout! Learn more

10-Day Weather Forecast

Advertisements
Track Severe Weather on mobile